Christian Reinauer — WDA6472 — position and weather

sailwx.info

Track history (hours):
 
Tides and Currents Weather Stations Pressure Air Temp Water Temp Dewpoint Dewpoint Depression Visibility Wind Speed Wind Dir Waves Ship Positions

Christian Reinauer

Owner: REINAUER TRANSPORTATION CO LLC, STATEN ISLAND, NY. More information available from US FCC via Universal Licensing System and Coast Guard Vessel Documentation Center.

Last reported at 2015-Apr-18 00:22 UTC. Time now 2015-Apr-18 16:47 UTC.
Position N 26°07' W 080°04'.

Length 170 m; draft 6.4 m.

Type: Ship (hazmat cat B). MMSI: 366832740.

Date/timePositionNaut miles runAvg speedWind from/ knotsBaromVisibWave heightAir tempDewpointWater temp
2015-Apr-18 00:22N 26°07' W 080°04'0 0.1
2015-Apr-17 23:25N 26°07' W 080°05'0 0.0
2015-Apr-17 22:25N 26°07' W 080°05'0 0.0
2015-Apr-17 21:22N 26°07' W 080°05'0 0.0
2015-Apr-17 20:28N 26°07' W 080°05'0 0.0
2015-Apr-17 19:28N 26°07' W 080°05'0 0.0
2015-Apr-17 18:28N 26°07' W 080°05'0 0.0
2015-Apr-17 17:28N 26°07' W 080°05'0 0.0
2015-Apr-17 16:28N 26°07' W 080°05'0 0.0
2015-Apr-17 15:31N 26°07' W 080°05'0 0.0
2015-Apr-17 14:31N 26°07' W 080°04'0 0.0
2015-Apr-17 13:31N 26°07' W 080°05'0 0.0
2015-Apr-17 12:33N 26°07' W 080°04'1 1.4
2015-Apr-17 11:33N 26°06' W 080°04'1413.9
2015-Apr-17 10:33N 25°52' W 080°02'175 5.4
2015-Apr-16 02:21N 26°57' W 083°03'53 9.2
2015-Apr-15 20:33N 27°43' W 082°33'1010.4
2015-Apr-15 19:33N 27°51' W 082°27'5 5.4
2015-Apr-15 18:33N 27°57' W 082°27'0 0.4
2015-Apr-15 17:32N 27°57' W 082°27'0 0.0
2015-Apr-15 16:32N 27°57' W 082°27'1 1.2
2015-Apr-15 15:31N 27°56' W 082°26'0 0.0
2015-Apr-15 14:31N 27°56' W 082°26'0 0.0
2015-Apr-15 13:31N 27°56' W 082°26'1 0.8
2015-Apr-15 12:33N 27°56' W 082°27'1 1.3
2015-Apr-15 11:32N 27°57' W 082°27'0 0.0
2015-Apr-15 10:32N 27°57' W 082°27'0 0.0
2015-Apr-15 09:32N 27°57' W 082°27'0 0.0
2015-Apr-15 08:32N 27°57' W 082°27'0 0.4
2015-Apr-15 07:33N 27°57' W 082°27'7 7.0
2015-Apr-15 06:33N 27°50' W 082°27'7 6.9
2015-Apr-15 05:33N 27°47' W 082°34'4 4.2
2015-Apr-15 04:31N 27°52' W 082°33'0 0.0
2015-Apr-15 03:31N 27°52' W 082°33'0 0.0
2015-Apr-15 02:31N 27°52' W 082°33'0 0.0
2015-Apr-15 01:31N 27°52' W 082°33'0 0.0
2015-Apr-15 00:31N 27°52' W 082°33'0 0.0
2015-Apr-14 23:31N 27°52' W 082°33'0 0.0
2015-Apr-14 22:31N 27°52' W 082°33'0 0.0
2015-Apr-14 21:34N 27°52' W 082°33'0 0.0
2015-Apr-14 20:33N 27°52' W 082°33'0 0.0
2015-Apr-14 19:33N 27°52' W 082°33'0 0.0
2015-Apr-14 18:33N 27°52' W 082°33'0 0.0
2015-Apr-14 17:33N 27°52' W 082°33'0 0.0
2015-Apr-14 16:33N 27°52' W 082°33'0 0.0
2015-Apr-14 15:33N 27°52' W 082°33'0 0.0
2015-Apr-14 14:33N 27°52' W 082°33'0 0.0
2015-Apr-14 13:30N 27°52' W 082°33'0 0.0
2015-Apr-14 12:33N 27°52' W 082°33'0 0.0
2015-Apr-14 11:33N 27°52' W 082°33'5 4.6
2015-Apr-14 10:33N 27°47' W 082°32'10 9.8
2015-Apr-14 09:33N 27°39' W 082°37'409 8.9
2015-Apr-12 11:24N 29°55' W 089°57'910.3
2015-Apr-12 10:31N 29°55' W 090°08'  
Track history (hours):
 
Tides and Currents Weather Stations Pressure Air Temp Water Temp Dewpoint Dewpoint Depression Visibility Wind Speed Wind Dir Waves Ship Positions

Christian Reinauer

Owner: REINAUER TRANSPORTATION CO LLC, STATEN ISLAND, NY. More information available from US FCC via Universal Licensing System and Coast Guard Vessel Documentation Center.

Last reported at 2015-Apr-18 00:22 UTC. Time now 2015-Apr-18 16:47 UTC.
Position N 26°07' W 080°04'.

Length 170 m; draft 6.4 m.

Type: Ship (hazmat cat B). MMSI: 366832740.

Date/timePositionNaut miles runAvg speedWind from/ knotsBaromVisibWave heightAir tempDewpointWater temp
2015-Apr-18 00:22N 26°07' W 080°04'0 0.1
2015-Apr-17 23:25N 26°07' W 080°05'0 0.0
2015-Apr-17 22:25N 26°07' W 080°05'0 0.0
2015-Apr-17 21:22N 26°07' W 080°05'0 0.0
2015-Apr-17 20:28N 26°07' W 080°05'0 0.0
2015-Apr-17 19:28N 26°07' W 080°05'0 0.0
2015-Apr-17 18:28N 26°07' W 080°05'0 0.0
2015-Apr-17 17:28N 26°07' W 080°05'0 0.0
2015-Apr-17 16:28N 26°07' W 080°05'0 0.0
2015-Apr-17 15:31N 26°07' W 080°05'0 0.0
2015-Apr-17 14:31N 26°07' W 080°04'0 0.0
2015-Apr-17 13:31N 26°07' W 080°05'0 0.0
2015-Apr-17 12:33N 26°07' W 080°04'1 1.4
2015-Apr-17 11:33N 26°06' W 080°04'1413.9
2015-Apr-17 10:33N 25°52' W 080°02'175 5.4
2015-Apr-16 02:21N 26°57' W 083°03'53 9.2
2015-Apr-15 20:33N 27°43' W 082°33'1010.4
2015-Apr-15 19:33N 27°51' W 082°27'5 5.4
2015-Apr-15 18:33N 27°57' W 082°27'0 0.4
2015-Apr-15 17:32N 27°57' W 082°27'0 0.0
2015-Apr-15 16:32N 27°57' W 082°27'1 1.2
2015-Apr-15 15:31N 27°56' W 082°26'0 0.0
2015-Apr-15 14:31N 27°56' W 082°26'0 0.0
2015-Apr-15 13:31N 27°56' W 082°26'1 0.8
2015-Apr-15 12:33N 27°56' W 082°27'1 1.3
2015-Apr-15 11:32N 27°57' W 082°27'0 0.0
2015-Apr-15 10:32N 27°57' W 082°27'0 0.0
2015-Apr-15 09:32N 27°57' W 082°27'0 0.0
2015-Apr-15 08:32N 27°57' W 082°27'0 0.4
2015-Apr-15 07:33N 27°57' W 082°27'7 7.0
2015-Apr-15 06:33N 27°50' W 082°27'7 6.9
2015-Apr-15 05:33N 27°47' W 082°34'4 4.2
2015-Apr-15 04:31N 27°52' W 082°33'0 0.0
2015-Apr-15 03:31N 27°52' W 082°33'0 0.0
2015-Apr-15 02:31N 27°52' W 082°33'0 0.0
2015-Apr-15 01:31N 27°52' W 082°33'0 0.0
2015-Apr-15 00:31N 27°52' W 082°33'0 0.0
2015-Apr-14 23:31N 27°52' W 082°33'0 0.0
2015-Apr-14 22:31N 27°52' W 082°33'0 0.0
2015-Apr-14 21:34N 27°52' W 082°33'0 0.0
2015-Apr-14 20:33N 27°52' W 082°33'0 0.0
2015-Apr-14 19:33N 27°52' W 082°33'0 0.0
2015-Apr-14 18:33N 27°52' W 082°33'0 0.0
2015-Apr-14 17:33N 27°52' W 082°33'0 0.0
2015-Apr-14 16:33N 27°52' W 082°33'0 0.0
2015-Apr-14 15:33N 27°52' W 082°33'0 0.0
2015-Apr-14 14:33N 27°52' W 082°33'0 0.0
2015-Apr-14 13:30N 27°52' W 082°33'0 0.0
2015-Apr-14 12:33N 27°52' W 082°33'0 0.0
2015-Apr-14 11:33N 27°52' W 082°33'5 4.6
2015-Apr-14 10:33N 27°47' W 082°32'10 9.8
2015-Apr-14 09:33N 27°39' W 082°37'409 8.9
2015-Apr-12 11:24N 29°55' W 089°57'910.3
2015-Apr-12 10:31N 29°55' W 090°08'  

Dump ship's entire track history